Time;durP1;ratioP1;P1;durP2;ratioP2;P2;SDS_P1;SDS_P2;PMS_P1;PMS_P2;Temp;Humidity;BMP_temperature;BMP_pressure;BME280_temperature;BME280_humidity;BME280_pressure;Samples;Min_cycle;Max_cycle;Signal;HPM_P1;HPM_P2
2023/11/10 00:00:36;;;;;;;11.07;10.87;;;9.50;1.00;;;;;;5071995;28;20451;-78
2023/11/10 00:03:06;;;;;;;12.20;11.90;;;9.50;99.90;;;;;;5064335;28;20479;-80
2023/11/10 00:05:35;;;;;;;11.80;11.50;;;9.40;99.90;;;;;;5071872;28;20467;-80
2023/11/10 00:08:05;;;;;;;11.40;11.00;;;9.40;1.00;;;;;;5070786;28;20451;-78
2023/11/10 00:10:34;;;;;;;11.03;10.83;;;9.40;99.90;;;;;;5072447;28;20540;-81
2023/11/10 00:13:02;;;;;;;11.43;11.13;;;9.30;1.00;;;;;;5072195;28;20543;-80
2023/11/10 00:15:30;;;;;;;11.40;11.10;;;9.30;1.00;;;;;;5069760;28;20549;-78
2023/11/10 00:18:00;;;;;;;10.60;10.40;;;9.30;14.50;;;;;;5072012;28;20536;-79
2023/11/10 00:20:31;;;;;;;10.70;10.50;;;9.20;99.90;;;;;;5077049;28;20524;-81
2023/11/10 00:23:00;;;;;;;10.30;10.10;;;9.20;99.90;;;;;;5073933;28;20563;-82
2023/11/10 00:25:28;;;;;;;10.77;10.47;;;9.30;1.00;;;;;;5069548;28;20466;-82
2023/11/10 00:27:56;;;;;;;10.80;10.60;;;9.30;99.90;;;;;;5074693;28;20542;-80
2023/11/10 00:30:25;;;;;;;10.70;10.50;;;9.30;99.90;;;;;;5073688;28;21764;-80
2023/11/10 00:32:53;;;;;;;11.70;11.30;;;9.20;1.00;;;;;;5072691;28;20473;-82
2023/11/10 00:35:22;;;;;;;11.20;11.00;;;9.20;1.00;;;;;;5071481;28;20446;-80
2023/11/10 00:37:51;;;;;;;10.97;10.70;;;9.20;1.00;;;;;;5076224;28;20512;-80
2023/11/10 00:40:20;;;;;;;10.87;10.57;;;9.10;1.00;;;;;;5075269;28;20536;-79
2023/11/10 00:42:49;;;;;;;10.70;10.40;;;9.10;99.90;;;;;;5075073;28;21090;-81
2023/11/10 00:45:17;;;;;;;10.70;10.50;;;9.10;99.90;;;;;;5070044;28;20497;-81
2023/11/10 00:47:46;;;;;;;11.13;10.93;;;9.10;99.90;;;;;;5077316;28;20550;-82
2023/11/10 00:50:14;;;;;;;10.87;10.67;;;9.00;99.90;;;;;;5072403;28;20455;-82
2023/11/10 00:52:43;;;;;;;11.20;10.90;;;9.00;1.00;;;;;;5074799;28;20558;-79
2023/11/10 00:55:12;;;;;;;11.17;10.97;;;9.00;99.90;;;;;;5075115;28;20463;-78
2023/11/10 00:57:41;;;;;;;10.90;10.60;;;8.90;99.90;;;;;;5076411;28;20463;-82
2023/11/10 01:00:11;;;;;;;10.87;10.67;;;8.90;99.90;;;;;;5081236;28;20447;-81
2023/11/10 01:02:40;;;;;;;10.90;10.70;;;8.90;99.90;;;;;;5075681;28;20483;-82
2023/11/10 01:05:11;;;;;;;11.17;10.87;;;8.90;6.80;;;;;;5068294;28;20993;-82
2023/11/10 01:07:40;;;;;;;11.20;11.00;;;8.90;48.30;;;;;;5072970;28;20471;-82
2023/11/10 01:10:16;;;;;;;11.60;11.40;;;8.80;1.00;;;;;;5076306;28;20463;-84
2023/11/10 01:12:45;;;;;;;11.30;11.10;;;8.90;1.00;;;;;;5075896;28;20502;-82
2023/11/10 01:15:17;;;;;;;11.20;11.00;;;8.90;99.90;;;;;;5077010;28;20520;-81
2023/11/10 01:17:47;;;;;;;11.20;11.00;;;8.90;99.90;;;;;;5075516;28;20447;-82
2023/11/10 01:20:15;;;;;;;11.50;11.30;;;8.90;99.90;;;;;;5079635;28;20455;-81
2023/11/10 01:22:43;;;;;;;11.40;11.20;;;8.90;99.90;;;;;;5076395;28;20474;-80
2023/11/10 01:25:13;;;;;;;11.20;10.90;;;8.90;99.90;;;;;;5081430;28;20455;-82
2023/11/10 01:27:47;;;;;;;11.10;10.90;;;8.90;99.90;;;;;;5079869;28;20921;-82
2023/11/10 01:30:19;;;;;;;11.10;10.90;;;8.90;1.00;;;;;;5077332;28;20450;-83
2023/11/10 01:32:49;;;;;;;11.10;10.90;;;8.90;99.90;;;;;;5078020;28;20530;-83
2023/11/10 01:35:17;;;;;;;11.17;10.97;;;8.90;99.90;;;;;;5073798;28;20455;-80
2023/11/10 01:37:46;;;;;;;11.47;11.20;;;8.90;99.90;;;;;;5079827;28;20447;-80
2023/11/10 01:40:16;;;;;;;11.23;11.03;;;8.90;4.30;;;;;;5080515;28;20464;-80
2023/11/10 01:42:44;;;;;;;10.90;10.70;;;8.80;1.00;;;;;;5080300;28;20516;-81
2023/11/10 01:45:13;;;;;;;10.90;10.70;;;8.80;99.90;;;;;;5077740;28;20458;-82
2023/11/10 01:47:44;;;;;;;11.50;11.27;;;8.90;99.90;;;;;;5076889;28;20579;-82
2023/11/10 01:50:15;;;;;;;11.23;10.93;;;8.90;99.90;;;;;;5080324;28;22568;-82
2023/11/10 01:52:44;;;;;;;10.73;10.53;;;8.90;99.90;;;;;;5077055;28;20512;-80
2023/11/10 01:55:15;;;;;;;11.13;10.93;;;8.90;99.90;;;;;;5078159;28;20450;-81
2023/11/10 01:57:46;;;;;;;11.13;10.93;;;8.90;99.90;;;;;;5078187;28;20543;-83
2023/11/10 02:00:21;;;;;;;11.00;10.80;;;8.90;99.90;;;;;;5079103;28;20541;-80
2023/11/10 02:02:49;;;;;;;10.90;10.70;;;9.00;1.00;;;;;;5080108;28;20499;-82
2023/11/10 02:05:18;;;;;;;11.10;10.90;;;9.00;99.90;;;;;;5075509;28;20459;-82
2023/11/10 02:07:46;;;;;;;11.33;11.10;;;9.00;1.00;;;;;;5078773;28;20455;-81
2023/11/10 02:10:19;;;;;;;11.07;10.80;;;9.00;1.00;;;;;;5080073;28;21179;-81
2023/11/10 02:12:54;;;;;;;11.50;11.30;;;9.00;1.00;;;;;;5077386;28;20482;-82
2023/11/10 02:15:23;;;;;;;11.47;11.27;;;9.00;1.00;;;;;;5082831;28;20454;-83
2023/11/10 02:17:52;;;;;;;12.20;12.00;;;9.00;1.00;;;;;;5075385;28;21000;-79
2023/11/10 02:20:24;;;;;;;11.93;11.73;;;9.00;1.00;;;;;;5081605;28;20461;-83
2023/11/10 02:22:55;;;;;;;11.47;11.27;;;9.00;1.00;;;;;;5077504;28;20458;-82
2023/11/10 02:25:25;;;;;;;11.57;11.37;;;9.00;1.00;;;;;;5077622;28;20470;-83
2023/11/10 02:27:53;;;;;;;11.50;11.20;;;9.10;1.00;;;;;;5086920;28;20452;-81
2023/11/10 02:30:23;;;;;;;12.20;11.80;;;9.00;1.00;;;;;;5087713;28;20443;-79
2023/11/10 02:32:53;;;;;;;12.30;11.90;;;9.00;1.00;;;;;;5083981;28;20527;-82
2023/11/10 02:35:21;;;;;;;11.93;11.63;;;8.90;1.00;;;;;;5084037;28;20477;-80
2023/11/10 02:37:50;;;;;;;11.30;11.10;;;8.90;99.90;;;;;;5084806;28;20469;-82
2023/11/10 02:40:18;;;;;;;11.10;10.90;;;8.80;99.90;;;;;;5085012;28;20466;-84
2023/11/10 02:42:48;;;;;;;11.70;11.40;;;8.70;1.00;;;;;;5083423;28;20478;-84
2023/11/10 02:45:17;;;;;;;11.50;11.30;;;8.80;1.00;;;;;;5082283;28;21039;-84
2023/11/10 02:47:46;;;;;;;11.10;10.90;;;8.80;1.00;;;;;;5087253;28;20966;-80
2023/11/10 02:50:15;;;;;;;11.37;11.17;;;8.80;99.90;;;;;;5078801;28;20464;-79
2023/11/10 02:52:47;;;;;;;11.20;11.00;;;8.90;99.90;;;;;;5084997;28;21009;-80
2023/11/10 02:55:15;;;;;;;11.10;10.90;;;8.80;70.30;;;;;;5077602;28;20440;-79
2023/11/10 02:57:46;;;;;;;11.30;11.10;;;8.80;1.00;;;;;;5076861;28;20462;-80
2023/11/10 03:00:16;;;;;;;11.23;11.03;;;8.80;12.10;;;;;;5086307;28;20451;-82
2023/11/10 03:02:45;;;;;;;11.03;10.80;;;8.70;99.90;;;;;;5073851;28;20469;-81
2023/11/10 03:05:13;;;;;;;12.07;11.77;;;8.80;70.10;;;;;;5079817;28;20483;-82
2023/11/10 03:07:41;;;;;;;11.40;11.20;;;8.80;1.00;;;;;;5078437;28;20533;-80
2023/11/10 03:10:11;;;;;;;11.50;11.30;;;8.80;99.90;;;;;;5075163;28;20873;-80
2023/11/10 03:12:40;;;;;;;11.43;11.23;;;8.80;1.00;;;;;;5078442;28;20500;-80
2023/11/10 03:15:08;;;;;;;11.60;11.40;;;8.80;99.90;;;;;;5079159;28;21385;-79
2023/11/10 03:17:38;;;;;;;11.60;11.40;;;8.80;99.90;;;;;;5078063;28;20916;-82
2023/11/10 03:20:09;;;;;;;11.30;11.10;;;8.80;1.00;;;;;;5077765;28;20458;-80
2023/11/10 03:22:37;;;;;;;11.30;11.10;;;8.80;1.00;;;;;;5076589;28;20544;-78
2023/11/10 03:25:07;;;;;;;11.70;11.50;;;8.70;1.00;;;;;;5071593;28;20582;-82
2023/11/10 03:27:39;;;;;;;11.70;11.40;;;8.70;1.00;;;;;;5078398;28;20494;-80
2023/11/10 03:30:09;;;;;;;12.00;11.70;;;8.80;1.00;;;;;;5075635;28;20469;-80
2023/11/10 03:32:39;;;;;;;11.90;11.70;;;8.80;99.90;;;;;;5077318;28;21169;-82
2023/11/10 03:35:08;;;;;;;11.70;11.50;;;8.80;97.70;;;;;;5070426;28;21112;-80
2023/11/10 03:37:36;;;;;;;11.90;11.70;;;8.80;99.90;;;;;;5077029;28;20453;-81
2023/11/10 03:40:05;;;;;;;11.30;11.10;;;8.80;99.90;;;;;;5074717;28;20454;-81
2023/11/10 03:42:33;;;;;;;10.90;10.70;;;8.80;99.90;;;;;;5072443;28;21451;-82
2023/11/10 03:45:03;;;;;;;10.87;10.67;;;8.70;64.10;;;;;;5080230;28;20519;-81
2023/11/10 03:47:32;;;;;;;10.87;10.67;;;8.70;99.90;;;;;;5077904;28;20455;-80
2023/11/10 03:50:02;;;;;;;10.90;10.70;;;8.60;1.00;;;;;;5073986;28;20465;-80
2023/11/10 03:52:32;;;;;;;10.90;10.70;;;8.70;1.00;;;;;;5076186;28;20919;-81
2023/11/10 03:55:01;;;;;;;10.70;10.50;;;8.70;1.00;;;;;;5074577;28;20493;-81
2023/11/10 03:57:30;;;;;;;11.10;10.70;;;8.70;1.00;;;;;;5072387;28;20482;-80
2023/11/10 04:00:00;;;;;;;10.70;10.50;;;8.70;99.90;;;;;;5079135;28;20525;-82
2023/11/10 04:02:29;;;;;;;11.00;10.80;;;8.80;99.90;;;;;;5079450;28;20462;-80
2023/11/10 04:04:57;;;;;;;11.53;11.33;;;8.80;99.90;;;;;;5084119;28;20479;-82
2023/11/10 04:07:29;;;;;;;11.50;11.30;;;8.70;19.10;;;;;;5076275;28;20454;-80
2023/11/10 04:10:00;;;;;;;11.57;11.37;;;8.70;1.00;;;;;;5076196;28;20458;-82
2023/11/10 04:12:28;;;;;;;11.77;11.57;;;8.70;1.00;;;;;;5075811;28;20474;-83
2023/11/10 04:14:58;;;;;;;11.70;11.50;;;8.80;1.00;;;;;;5073450;28;22485;-80
2023/11/10 04:17:26;;;;;;;11.50;11.30;;;8.80;1.00;;;;;;5078932;28;20468;-83
2023/11/10 04:19:56;;;;;;;11.77;11.57;;;8.70;1.00;;;;;;5083474;28;20468;-83
2023/11/10 04:22:24;;;;;;;11.30;11.10;;;8.70;99.90;;;;;;5074112;28;21742;-81
2023/11/10 04:24:54;;;;;;;11.60;11.40;;;8.70;1.00;;;;;;5076418;28;20481;-82
2023/11/10 04:27:23;;;;;;;11.77;11.57;;;8.70;99.90;;;;;;5078157;28;20447;-82
2023/11/10 04:29:51;;;;;;;11.27;11.07;;;8.70;1.00;;;;;;5078579;28;20465;-83
2023/11/10 04:32:20;;;;;;;11.53;11.27;;;8.60;1.00;;;;;;5077019;28;20475;-82
2023/11/10 04:34:48;;;;;;;12.13;11.93;;;8.60;1.00;;;;;;5079231;28;20447;-79
2023/11/10 04:37:21;;;;;;;11.20;11.00;;;8.60;1.00;;;;;;5075080;28;20852;-81
2023/11/10 04:39:52;;;;;;;11.20;11.00;;;8.60;35.30;;;;;;5075411;28;20442;-80
2023/11/10 04:42:22;;;;;;;11.30;11.10;;;8.60;50.00;;;;;;5074169;28;20566;-82
2023/11/10 04:44:50;;;;;;;11.13;10.93;;;8.60;1.00;;;;;;5070736;28;20471;-80
2023/11/10 04:47:18;;;;;;;11.00;10.80;;;8.60;20.90;;;;;;5078178;28;20839;-84
2023/11/10 04:49:46;;;;;;;11.40;11.20;;;8.60;1.00;;;;;;5074999;28;20450;-80
2023/11/10 04:52:20;;;;;;;11.20;11.00;;;8.60;1.00;;;;;;5073036;28;20481;-81
2023/11/10 04:54:48;;;;;;;11.50;11.20;;;8.50;1.00;;;;;;5074220;28;20487;-81
2023/11/10 04:57:17;;;;;;;11.13;10.93;;;8.50;1.00;;;;;;5074366;28;20491;-81
2023/11/10 04:59:48;;;;;;;11.00;10.80;;;8.50;1.00;;;;;;5076900;28;20512;-81
2023/11/10 05:02:16;;;;;;;11.10;10.90;;;8.40;1.00;;;;;;5076796;28;20488;-82
2023/11/10 05:04:45;;;;;;;10.90;10.70;;;8.40;99.90;;;;;;5074440;28;20465;-80
2023/11/10 05:07:14;;;;;;;10.60;10.40;;;8.40;1.00;;;;;;5068797;28;20455;-80
2023/11/10 05:09:42;;;;;;;10.40;10.20;;;8.50;99.90;;;;;;5075898;28;20462;-79
2023/11/10 05:12:10;;;;;;;10.40;10.30;;;8.40;22.00;;;;;;5074071;28;20493;-82
2023/11/10 05:14:41;;;;;;;10.80;10.60;;;8.50;99.90;;;;;;5073994;28;20447;-80
2023/11/10 05:17:11;;;;;;;10.70;10.50;;;8.50;99.90;;;;;;5071319;28;20515;-82
2023/11/10 05:19:39;;;;;;;10.43;10.23;;;8.50;1.00;;;;;;5076574;28;20585;-81
2023/11/10 05:22:07;;;;;;;10.50;10.30;;;8.50;99.90;;;;;;5070155;28;20458;-80
2023/11/10 05:24:39;;;;;;;10.50;10.30;;;8.50;47.60;;;;;;5076762;28;20463;-79
2023/11/10 05:27:09;;;;;;;10.30;10.20;;;8.50;24.10;;;;;;5076495;28;20548;-80
2023/11/10 05:29:37;;;;;;;10.60;10.40;;;8.50;99.90;;;;;;5077675;28;20448;-81
2023/11/10 05:32:06;;;;;;;10.30;10.10;;;8.40;99.90;;;;;;5072202;28;20454;-80
2023/11/10 05:34:37;;;;;;;10.60;10.40;;;8.40;99.90;;;;;;5080525;28;20450;-81
2023/11/10 05:37:09;;;;;;;10.43;10.23;;;8.50;99.90;;;;;;5077424;28;20459;-83
2023/11/10 05:39:39;;;;;;;10.30;10.10;;;8.40;99.90;;;;;;5075908;28;20487;-81
2023/11/10 05:42:07;;;;;;;10.00;9.80;;;8.40;91.10;;;;;;5075792;28;20454;-81
2023/11/10 05:44:35;;;;;;;10.00;9.90;;;8.40;1.00;;;;;;5070969;28;20960;-81
2023/11/10 05:47:04;;;;;;;10.20;10.00;;;8.40;99.90;;;;;;5076924;28;20532;-81
2023/11/10 05:49:34;;;;;;;10.20;10.00;;;8.40;53.90;;;;;;5076408;28;20459;-79
2023/11/10 05:52:04;;;;;;;10.20;10.00;;;8.40;25.10;;;;;;5074714;28;20451;-80
2023/11/10 05:54:33;;;;;;;10.40;10.20;;;8.30;1.00;;;;;;5072545;28;20488;-81
2023/11/10 05:57:03;;;;;;;10.10;9.90;;;8.30;99.90;;;;;;5074003;28;20451;-81
2023/11/10 05:59:34;;;;;;;10.10;9.90;;;8.30;99.90;;;;;;5074933;28;20520;-81
2023/11/10 06:02:05;;;;;;;10.20;10.10;;;8.30;99.90;;;;;;5076025;28;20541;-79
2023/11/10 06:04:33;;;;;;;10.20;10.00;;;8.30;99.90;;;;;;5072879;28;20493;-81
2023/11/10 06:07:06;;;;;;;10.20;10.10;;;8.40;99.90;;;;;;5077868;28;20471;-80
2023/11/10 06:09:35;;;;;;;11.93;11.53;;;8.40;1.00;;;;;;5078688;28;20463;-80
2023/11/10 06:12:06;;;;;;;10.50;10.30;;;8.40;1.00;;;;;;5079425;28;20465;-79
2023/11/10 06:14:38;;;;;;;10.20;10.00;;;8.50;1.00;;;;;;5074857;28;20527;-79
2023/11/10 06:17:08;;;;;;;10.40;10.20;;;8.50;1.00;;;;;;5079453;28;20511;-82
2023/11/10 06:19:38;;;;;;;10.30;10.10;;;8.50;1.00;;;;;;5078406;28;20504;-78
2023/11/10 06:22:11;;;;;;;10.70;10.50;;;8.40;1.00;;;;;;5073485;28;20500;-79
2023/11/10 06:24:40;;;;;;;10.80;10.60;;;8.40;92.20;;;;;;5077048;28;20465;-78
2023/11/10 06:27:08;;;;;;;10.90;10.60;;;8.40;99.90;;;;;;5077420;28;21106;-79
2023/11/10 06:29:38;;;;;;;10.37;10.17;;;8.40;99.90;;;;;;5077410;28;20528;-79
2023/11/10 06:32:11;;;;;;;10.33;10.13;;;8.40;99.90;;;;;;5078262;28;20470;-80
2023/11/10 06:34:39;;;;;;;10.90;10.70;;;8.40;99.90;;;;;;5072027;28;20459;-79
2023/11/10 06:37:11;;;;;;;10.70;10.50;;;8.30;99.90;;;;;;5076533;28;20551;-79
2023/11/10 06:39:40;;;;;;;10.97;10.77;;;8.30;1.00;;;;;;5075366;28;20447;-79
2023/11/10 06:42:09;;;;;;;11.00;10.80;;;8.40;99.90;;;;;;5076232;28;20470;-82
2023/11/10 06:44:38;;;;;;;10.77;10.47;;;8.40;1.00;;;;;;5076283;28;20543;-78
2023/11/10 06:47:07;;;;;;;10.70;10.50;;;8.40;1.00;;;;;;5079441;28;20475;-80
2023/11/10 06:49:35;;;;;;;10.47;10.27;;;8.30;99.90;;;;;;5079486;28;20537;-79
2023/11/10 06:52:04;;;;;;;10.53;10.33;;;8.30;99.90;;;;;;5073300;28;20693;-79
2023/11/10 06:54:34;;;;;;;10.70;10.50;;;8.40;99.90;;;;;;5077359;28;20466;-79
2023/11/10 06:57:02;;;;;;;10.30;10.20;;;8.30;99.90;;;;;;5077825;28;20451;-78
2023/11/10 06:59:30;;;;;;;11.20;11.00;;;8.40;1.00;;;;;;5076243;28;20447;-81
2023/11/10 07:01:59;;;;;;;16.37;14.87;;;8.30;99.90;;;;;;5071603;28;20470;-81
2023/11/10 07:04:29;;;;;;;11.63;11.27;;;8.40;99.90;;;;;;5071086;28;20492;-79
2023/11/10 07:06:58;;;;;;;11.00;10.80;;;8.50;99.90;;;;;;5068634;28;21087;-78
2023/11/10 07:09:27;;;;;;;10.63;10.43;;;8.40;1.00;;;;;;5071120;28;20459;-79
2023/11/10 07:11:57;;;;;;;11.10;10.90;;;8.40;1.00;;;;;;5075026;28;20447;-80
2023/11/10 07:14:27;;;;;;;10.90;10.70;;;8.40;1.00;;;;;;5073888;28;20596;-79
2023/11/10 07:16:56;;;;;;;11.30;11.10;;;8.40;1.00;;;;;;5079924;28;20447;-81
2023/11/10 07:19:25;;;;;;;10.50;10.30;;;8.40;22.80;;;;;;5078659;28;20494;-79
2023/11/10 07:21:54;;;;;;;10.83;10.63;;;8.40;23.80;;;;;;5073433;28;20549;-79
2023/11/10 07:24:22;;;;;;;10.60;10.40;;;8.40;3.70;;;;;;5077565;28;20458;-78
2023/11/10 07:26:51;;;;;;;11.00;10.80;;;8.40;99.90;;;;;;5078541;28;20478;-80
2023/11/10 07:29:21;;;;;;;10.90;10.70;;;8.30;99.90;;;;;;5077167;28;20474;-81
2023/11/10 07:31:51;;;;;;;10.70;10.50;;;8.30;99.90;;;;;;5077961;28;20461;-79
2023/11/10 07:34:21;;;;;;;10.80;10.60;;;8.30;1.00;;;;;;5074199;28;20477;-79
2023/11/10 07:36:49;;;;;;;11.23;11.03;;;8.40;99.90;;;;;;5073322;28;20470;-80
2023/11/10 07:39:18;;;;;;;10.50;10.30;;;8.50;1.00;;;;;;5072054;28;20487;-79
2023/11/10 07:41:47;;;;;;;11.50;11.30;;;8.50;1.00;;;;;;5073259;28;20447;-81
2023/11/10 07:44:15;;;;;;;11.00;10.80;;;8.60;99.90;;;;;;5073531;28;20458;-80
2023/11/10 07:46:45;;;;;;;10.93;10.60;;;8.60;99.90;;;;;;5072711;28;20506;-79
2023/11/10 07:49:16;;;;;;;11.03;10.83;;;8.60;99.90;;;;;;5076367;28;20840;-79
2023/11/10 07:51:44;;;;;;;11.10;10.90;;;8.50;99.90;;;;;;5074028;28;20447;-79
2023/11/10 07:54:17;;;;;;;11.07;10.77;;;8.50;99.90;;;;;;5078331;28;20992;-80
2023/11/10 07:56:45;;;;;;;10.97;10.77;;;8.50;99.90;;;;;;5074921;28;20485;-80
2023/11/10 07:59:14;;;;;;;10.70;10.50;;;8.60;99.90;;;;;;5075501;28;20861;-79
2023/11/10 08:01:44;;;;;;;10.73;10.53;;;8.60;1.40;;;;;;5072733;28;20550;-81
2023/11/10 08:04:13;;;;;;;10.80;10.60;;;8.60;99.90;;;;;;5073804;28;20510;-79
2023/11/10 08:06:50;;;;;;;10.70;10.50;;;8.60;1.00;;;;;;5085695;27;20571;-78
2023/11/10 08:09:21;;;;;;;10.70;10.50;;;8.60;1.00;;;;;;5049121;28;20478;-80
2023/11/10 08:11:51;;;;;;;10.90;10.70;;;8.60;66.10;;;;;;5048707;28;21456;-78
2023/11/10 08:14:22;;;;;;;10.90;10.70;;;8.60;99.90;;;;;;5026358;28;20453;-79
2023/11/10 08:16:51;;;;;;;10.80;10.60;;;8.80;1.00;;;;;;5029647;28;20460;-78
2023/11/10 08:19:20;;;;;;;11.10;10.90;;;8.90;1.00;;;;;;5033328;28;21197;-80
2023/11/10 08:21:50;;;;;;;10.20;10.00;;;9.00;99.90;;;;;;5034928;28;20966;-79
2023/11/10 08:24:19;;;;;;;10.43;10.23;;;9.00;78.90;;;;;;5034760;28;21031;-79
2023/11/10 08:26:49;;;;;;;10.50;10.30;;;9.00;36.60;;;;;;5033720;28;20476;-78
2023/11/10 08:29:17;;;;;;;10.27;10.07;;;8.90;2.50;;;;;;5031058;28;20466;-79
2023/11/10 08:31:48;;;;;;;10.30;10.10;;;9.00;11.50;;;;;;5034441;28;20463;-79
2023/11/10 08:34:16;;;;;;;10.50;10.30;;;8.90;36.60;;;;;;5033627;28;20469;-81
2023/11/10 08:36:45;;;;;;;10.43;10.23;;;9.00;14.60;;;;;;5035566;28;20500;-80
2023/11/10 08:39:16;;;;;;;10.50;10.30;;;9.00;1.00;;;;;;5065448;28;20459;-79
2023/11/10 08:41:48;;;;;;;10.70;10.50;;;9.00;1.00;;;;;;5035371;28;20906;-78
2023/11/10 08:44:18;;;;;;;10.50;10.30;;;9.00;1.00;;;;;;5034094;28;20579;-78
2023/11/10 08:46:47;;;;;;;10.80;10.60;;;9.10;1.00;;;;;;5035091;28;20476;-80
2023/11/10 08:49:15;;;;;;;10.70;10.50;;;9.10;1.00;;;;;;5031940;28;20460;-79
2023/11/10 08:51:44;;;;;;;10.90;10.70;;;9.20;1.00;;;;;;5034302;28;20519;-80
2023/11/10 08:54:13;;;;;;;10.30;10.10;;;9.20;1.00;;;;;;5034157;28;20481;-80
2023/11/10 08:56:44;;;;;;;10.60;10.40;;;9.10;1.00;;;;;;5035497;28;20555;-78
2023/11/10 08:59:13;;;;;;;10.70;10.50;;;9.20;1.00;;;;;;5035456;28;20535;-80
2023/11/10 09:01:41;;;;;;;10.70;10.40;;;9.40;1.00;;;;;;5036388;28;20457;-79
2023/11/10 09:04:10;;;;;;;11.10;10.90;;;9.40;99.90;;;;;;5029684;28;20517;-78
2023/11/10 09:06:52;;;;;;;11.07;10.87;;;9.30;1.00;;;;;;5033864;28;20495;-80
2023/11/10 09:09:21;;;;;;;11.37;11.17;;;9.40;1.00;;;;;;5033499;28;20483;-79
2023/11/10 09:11:51;;;;;;;11.07;10.87;;;9.50;1.00;;;;;;5035688;28;20828;-79
2023/11/10 09:14:20;;;;;;;11.20;11.00;;;9.40;1.00;;;;;;5034739;28;20567;-79
2023/11/10 09:16:48;;;;;;;11.57;11.20;;;9.30;1.00;;;;;;5029319;28;20964;-78
2023/11/10 09:19:17;;;;;;;11.30;11.10;;;9.30;99.80;;;;;;5018337;28;20452;-80
2023/11/10 09:21:45;;;;;;;11.30;11.10;;;9.50;99.90;;;;;;5019339;28;20544;-79
2023/11/10 09:24:13;;;;;;;11.40;11.20;;;9.40;7.20;;;;;;5019664;28;20489;-78
2023/11/10 09:26:43;;;;;;;11.33;11.13;;;9.30;99.90;;;;;;5020051;28;20485;-79
2023/11/10 09:29:15;;;;;;;11.23;11.03;;;9.40;99.90;;;;;;5020980;28;20548;-78
2023/11/10 09:31:43;;;;;;;11.00;10.80;;;9.50;99.90;;;;;;5022029;28;20457;-77
2023/11/10 09:34:12;;;;;;;11.70;11.50;;;9.50;99.90;;;;;;5017130;28;21081;-80
2023/11/10 09:36:41;;;;;;;11.77;11.57;;;9.40;1.00;;;;;;5018052;28;21004;-80
2023/11/10 09:39:09;;;;;;;11.40;11.20;;;9.40;1.00;;;;;;5021624;28;21073;-79
2023/11/10 09:41:39;;;;;;;11.60;11.40;;;9.50;1.00;;;;;;5021664;28;20481;-78
2023/11/10 09:44:11;;;;;;;11.30;11.10;;;9.50;1.00;;;;;;5019751;28;20504;-80
2023/11/10 09:46:44;;;;;;;11.30;11.10;;;9.50;1.00;;;;;;5018084;28;20567;-79
2023/11/10 09:49:13;;;;;;;11.60;11.40;;;9.50;1.00;;;;;;5018214;28;20458;-80
2023/11/10 09:51:43;;;;;;;11.70;11.50;;;9.50;1.00;;;;;;5022857;28;20453;-78
2023/11/10 09:54:12;;;;;;;11.30;11.10;;;9.40;1.00;;;;;;5018704;28;20472;-79
2023/11/10 09:56:41;;;;;;;11.87;11.57;;;9.30;1.00;;;;;;5018145;28;20453;-79
2023/11/10 09:59:10;;;;;;;11.67;11.47;;;9.30;1.00;;;;;;5021118;28;20540;-79
2023/11/10 10:01:38;;;;;;;12.00;11.70;;;9.30;1.00;;;;;;5015621;28;20457;-79
2023/11/10 10:04:09;;;;;;;11.93;11.70;;;9.40;1.00;;;;;;5018425;28;21026;-79
2023/11/10 10:06:39;;;;;;;11.57;11.37;;;9.40;1.00;;;;;;5021084;28;20495;-80
2023/11/10 10:09:09;;;;;;;11.30;11.10;;;9.30;1.00;;;;;;5019741;28;20825;-78
2023/11/10 10:11:38;;;;;;;11.87;11.60;;;9.30;1.00;;;;;;5020050;28;20453;-78
2023/11/10 10:14:07;;;;;;;11.43;11.13;;;9.30;1.00;;;;;;5019398;28;20470;-79
2023/11/10 10:16:36;;;;;;;11.30;11.10;;;9.20;99.90;;;;;;5020456;28;20461;-78
2023/11/10 10:19:05;;;;;;;11.20;11.00;;;9.30;99.90;;;;;;5019994;28;20494;-79
2023/11/10 10:21:42;;;;;;;11.53;11.23;;;9.30;99.90;;;;;;5022101;28;20471;-78
2023/11/10 10:24:11;;;;;;;10.90;10.70;;;9.30;99.90;;;;;;5019396;28;20476;-78
2023/11/10 10:26:40;;;;;;;10.97;10.77;;;9.30;99.90;;;;;;5025941;28;20481;-81
2023/11/10 10:29:08;;;;;;;11.40;11.00;;;9.40;99.90;;;;;;5017696;28;20460;-78
2023/11/10 10:31:37;;;;;;;12.33;11.93;;;9.30;99.90;;;;;;5019071;28;20453;-78
2023/11/10 10:34:06;;;;;;;10.80;10.60;;;11.00;99.90;;;;;;5016600;28;20477;-78
2023/11/10 10:36:35;;;;;;;11.37;11.07;;;10.90;1.00;;;;;;5022363;28;20468;-80
2023/11/10 10:39:10;;;;;;;10.93;10.73;;;11.10;1.00;;;;;;5019189;28;20464;-78
2023/11/10 10:41:39;;;;;;;11.60;11.30;;;10.60;1.00;;;;;;5020535;28;20475;-78
2023/11/10 10:44:08;;;;;;;11.77;11.43;;;11.80;1.00;;;;;;5019494;28;20559;-80
2023/11/10 10:46:39;;;;;;;11.60;11.10;;;12.90;99.90;;;;;;5020765;28;20484;-79
2023/11/10 10:49:12;;;;;;;11.30;11.10;;;13.30;99.90;;;;;;5018477;28;20480;-78
2023/11/10 10:51:40;;;;;;;10.93;10.73;;;13.40;99.90;;;;;;5019085;28;20471;-80
2023/11/10 10:54:12;;;;;;;10.60;10.23;;;13.70;99.90;;;;;;5019905;28;20916;-79
2023/11/10 10:56:40;;;;;;;10.13;9.93;;;14.10;99.90;;;;;;5018073;28;20461;-79
2023/11/10 10:59:13;;;;;;;10.50;10.30;;;14.70;99.90;;;;;;5017078;28;20454;-79
2023/11/10 11:01:43;;;;;;;9.20;9.00;;;15.00;99.90;;;;;;5018930;28;21049;-78
2023/11/10 11:04:27;;;;;;;10.00;9.70;;;15.70;99.90;;;;;;5018913;28;20477;-81
2023/11/10 11:07:30;;;;;;;8.77;8.53;;;16.10;99.90;;;;;;5017506;28;20512;-79
2023/11/10 11:10:41;;;;;;;9.43;9.23;;;16.00;99.90;;;;;;5020446;28;20601;-79
2023/11/10 11:13:44;;;;;;;9.60;9.10;;;15.00;99.90;;;;;;5019966;28;20476;-79
2023/11/10 11:16:31;;;;;;;8.90;8.70;;;14.20;99.90;;;;;;5016842;28;20844;-79
2023/11/10 11:19:19;;;;;;;10.20;9.90;;;13.70;99.90;;;;;;5018520;28;20470;-79
2023/11/10 11:21:49;;;;;;;10.07;9.40;;;13.10;99.90;;;;;;5016534;28;20461;-78
2023/11/10 11:24:19;;;;;;;10.20;10.00;;;12.90;99.90;;;;;;5022223;28;20481;-79
2023/11/10 11:26:59;;;;;;;10.90;10.60;;;12.70;99.90;;;;;;5020249;28;20914;-79
2023/11/10 11:29:36;;;;;;;9.13;8.93;;;12.40;99.90;;;;;;5017357;28;20471;-79
2023/11/10 11:32:08;;;;;;;10.00;9.50;;;12.20;99.90;;;;;;5016449;28;20990;-78
2023/11/10 11:34:37;;;;;;;9.00;8.90;;;12.00;99.90;;;;;;5019422;28;20470;-81
2023/11/10 11:37:06;;;;;;;9.50;9.30;;;11.90;99.90;;;;;;5015934;28;20485;-78
2023/11/10 11:39:35;;;;;;;9.13;8.93;;;11.90;99.90;;;;;;5019462;28;20501;-79
2023/11/10 11:42:06;;;;;;;9.17;8.97;;;11.70;99.90;;;;;;5022907;28;20812;-80
2023/11/10 11:44:36;;;;;;;9.50;9.20;;;11.50;99.90;;;;;;5016243;28;20962;-78
2023/11/10 11:47:09;;;;;;;8.40;8.20;;;11.50;99.90;;;;;;5047186;28;20477;-79
2023/11/10 11:49:39;;;;;;;9.33;9.13;;;11.40;99.90;;;;;;5018481;28;20575;-80
2023/11/10 11:52:09;;;;;;;9.07;8.77;;;11.40;99.90;;;;;;5017365;28;20469;-80
2023/11/10 11:54:38;;;;;;;9.90;9.60;;;11.40;99.90;;;;;;5017375;28;20594;-79
2023/11/10 11:57:07;;;;;;;8.80;8.70;;;11.20;99.90;;;;;;5016386;28;20459;-79
2023/11/10 11:59:37;;;;;;;9.17;8.97;;;11.00;99.90;;;;;;5020359;28;20564;-81
2023/11/10 12:02:08;;;;;;;8.10;8.00;;;10.90;99.90;;;;;;5017963;28;21046;-80
2023/11/10 12:04:36;;;;;;;8.67;8.47;;;10.90;99.90;;;;;;5016867;28;20464;-80
2023/11/10 12:07:05;;;;;;;9.47;9.27;;;11.00;99.90;;;;;;5012891;28;20476;-78
2023/11/10 12:09:33;;;;;;;9.63;9.43;;;11.00;99.90;;;;;;5015485;28;20560;-80
2023/11/10 12:12:02;;;;;;;9.90;9.60;;;11.20;99.90;;;;;;5015977;28;20457;-80
2023/11/10 12:14:32;;;;;;;10.07;9.77;;;11.40;99.90;;;;;;5015679;28;20457;-79
2023/11/10 12:17:02;;;;;;;10.20;9.90;;;11.60;99.90;;;;;;5014794;28;20960;-79
2023/11/10 12:19:31;;;;;;;10.40;10.00;;;11.70;99.90;;;;;;5019170;28;20465;-79
2023/11/10 12:22:01;;;;;;;10.00;9.80;;;11.80;99.90;;;;;;5015389;28;20451;-79
2023/11/10 12:24:30;;;;;;;10.57;10.27;;;11.90;99.90;;;;;;5017422;28;20451;-79
2023/11/10 12:27:00;;;;;;;9.93;9.73;;;12.00;99.90;;;;;;5013661;28;20519;-80
2023/11/10 12:29:32;;;;;;;10.60;10.40;;;12.10;99.90;;;;;;5018041;28;20458;-81
2023/11/10 12:32:02;;;;;;;10.80;10.60;;;12.10;99.90;;;;;;5015560;28;20457;-79
2023/11/10 12:34:31;;;;;;;11.33;11.13;;;12.10;99.90;;;;;;5018135;28;21069;-80
2023/11/10 12:37:04;;;;;;;10.60;10.40;;;12.00;99.90;;;;;;5009040;28;20501;-80
2023/11/10 12:39:33;;;;;;;11.00;10.70;;;11.90;99.90;;;;;;5019675;28;20986;-80
2023/11/10 12:42:05;;;;;;;10.60;10.40;;;11.80;99.90;;;;;;5017324;28;20449;-80
2023/11/10 12:44:35;;;;;;;10.30;10.10;;;11.70;99.90;;;;;;5019816;28;20834;-80
2023/11/10 12:47:06;;;;;;;10.30;10.00;;;11.60;99.90;;;;;;5018282;28;20483;-79
2023/11/10 12:49:35;;;;;;;10.20;10.00;;;11.60;99.90;;;;;;5022537;28;21373;-79
2023/11/10 12:52:09;;;;;;;10.47;10.27;;;11.30;99.90;;;;;;5020630;28;21008;-80
2023/11/10 12:54:41;;;;;;;10.10;9.90;;;11.20;99.90;;;;;;5022749;28;20474;-80